TimeCDT,TemperatureF,Dew PointF,Humidity,Sea Level PressureIn,VisibilityMPH,Wind Direction,Wind SpeedMPH,Gust SpeedMPH,PrecipitationIn,Events,Conditions,WindDirDegrees,DateUTC
12:53 AM,60.1,50.0,69,29.84,10.0,SE,6.9,-,N/A,,Clear,130,2013-09-24 05:53:00
1:53 AM,61.0,50.0,67,29.83,10.0,SE,9.2,-,N/A,,Partly Cloudy,130,2013-09-24 06:53:00
2:53 AM,61.0,51.1,70,29.82,10.0,SE,6.9,16.1,N/A,,Clear,140,2013-09-24 07:53:00
3:53 AM,60.1,51.1,72,29.81,10.0,SE,9.2,-,N/A,,Partly Cloudy,140,2013-09-24 08:53:00
4:53 AM,62.1,52.0,70,29.80,10.0,SE,8.1,17.3,N/A,,Scattered Clouds,140,2013-09-24 09:53:00
5:53 AM,59.0,52.0,78,29.80,10.0,ESE,5.8,-,N/A,,Clear,110,2013-09-24 10:53:00
6:53 AM,57.9,52.0,81,29.81,10.0,ESE,5.8,-,N/A,,Clear,120,2013-09-24 11:53:00
7:53 AM,57.9,52.0,81,29.81,10.0,ESE,4.6,-,N/A,,Clear,110,2013-09-24 12:53:00
8:53 AM,60.1,53.1,78,29.81,10.0,ESE,8.1,-,N/A,,Mostly Cloudy,110,2013-09-24 13:53:00
9:53 AM,63.0,54.0,72,29.83,10.0,SSE,6.9,-,N/A,,Overcast,160,2013-09-24 14:53:00
10:53 AM,64.9,55.0,70,29.83,10.0,SE,6.9,-,N/A,,Overcast,130,2013-09-24 15:53:00
11:53 AM,66.0,55.9,70,29.83,10.0,ESE,5.8,-,N/A,,Mostly Cloudy,120,2013-09-24 16:53:00
12:53 PM,66.9,55.9,68,29.83,10.0,East,6.9,-,N/A,,Overcast,90,2013-09-24 17:53:00
1:53 PM,70.0,57.9,65,29.83,10.0,ESE,5.8,-,N/A,,Mostly Cloudy,120,2013-09-24 18:53:00
2:53 PM,71.1,57.0,61,29.83,10.0,ENE,4.6,-,N/A,,Mostly Cloudy,70,2013-09-24 19:53:00
3:53 PM,72.0,57.9,61,29.82,10.0,ESE,4.6,-,N/A,,Scattered Clouds,110,2013-09-24 20:53:00
4:53 PM,72.0,59.0,64,29.83,10.0,NNE,10.4,16.1,N/A,,Mostly Cloudy,30,2013-09-24 21:53:00
5:53 PM,69.1,60.1,73,29.84,10.0,NE,6.9,-,N/A,,Overcast,40,2013-09-24 22:53:00
6:53 PM,66.9,59.0,76,29.86,10.0,East,4.6,-,N/A,,Overcast,80,2013-09-24 23:53:00
7:53 PM,63.0,59.0,87,29.86,10.0,NE,3.5,-,N/A,,Overcast,50,2013-09-25 00:53:00
8:53 PM,62.1,57.9,86,29.87,10.0,North,3.5,-,N/A,,Clear,10,2013-09-25 01:53:00
9:53 PM,60.1,57.0,90,29.87,10.0,NNW,8.1,-,N/A,,Clear,340,2013-09-25 02:53:00
10:53 PM,60.1,57.0,90,29.88,10.0,North,6.9,-,N/A,,Clear,10,2013-09-25 03:53:00
11:53 PM,59.0,57.0,93,29.88,10.0,North,6.9,-,N/A,,Partly Cloudy,10,2013-09-25 04:53:00